Time;durP1;ratioP1;P1;durP2;ratioP2;P2;SDS_P1;SDS_P2;PMS_P1;PMS_P2;Temp;Humidity;BMP_temperature;BMP_pressure;BME280_temperature;BME280_humidity;BME280_pressure;Samples;Min_cycle;Max_cycle;Signal;HPM_P1;HPM_P2
2023/11/30 00:02:32;;;;;;;31.13;12.10;;;2.00;88.20;;;;;;9176174;19;20026;-70
2023/11/30 00:05:37;;;;;;;22.73;9.05;;;2.00;88.20;;;;;;9174809;19;20086;-71
2023/11/30 00:08:47;;;;;;;24.05;9.70;;;2.00;88.30;;;;;;9173513;19;20010;-71
2023/11/30 00:11:53;;;;;;;18.88;8.23;;;2.00;88.30;;;;;;9175137;19;20022;-71
2023/11/30 00:15:00;;;;;;;17.98;8.93;;;2.00;88.30;;;;;;9175262;19;20049;-70
2023/11/30 00:18:07;;;;;;;17.70;8.65;;;2.10;88.30;;;;;;9173654;19;20494;-70
2023/11/30 00:21:15;;;;;;;17.33;8.68;;;2.10;88.40;;;;;;9172390;19;20053;-69
2023/11/30 00:24:23;;;;;;;19.95;8.57;;;2.10;88.30;;;;;;9174513;19;20517;-68
2023/11/30 00:27:30;;;;;;;19.45;8.18;;;2.10;88.40;;;;;;9175842;19;20015;-68
2023/11/30 00:30:36;;;;;;;18.67;8.80;;;2.10;88.30;;;;;;9175345;19;20028;-70
2023/11/30 00:33:43;;;;;;;20.10;9.60;;;2.20;88.40;;;;;;9175209;19;20471;-69
2023/11/30 00:36:49;;;;;;;15.25;8.43;;;2.20;88.40;;;;;;9175395;19;20010;-70
2023/11/30 00:39:59;;;;;;;18.45;7.75;;;2.20;88.40;;;;;;9172924;19;20017;-70
2023/11/30 00:43:04;;;;;;;17.80;8.63;;;2.20;88.40;;;;;;9172819;19;20019;-68
2023/11/30 00:46:14;;;;;;;16.23;8.65;;;2.20;88.30;;;;;;9174985;19;20022;-70
2023/11/30 00:49:20;;;;;;;15.35;8.05;;;2.20;88.40;;;;;;9172815;19;20026;-68
2023/11/30 00:52:28;;;;;;;19.63;8.00;;;2.20;88.40;;;;;;9175007;19;20019;-69
2023/11/30 00:55:37;;;;;;;15.55;8.30;;;2.20;88.40;;;;;;9172746;19;20034;-69
2023/11/30 00:58:44;;;;;;;11.50;6.68;;;2.30;88.40;;;;;;9168960;19;20094;-69
2023/11/30 01:01:50;;;;;;;13.90;7.70;;;2.20;88.40;;;;;;9174087;19;20019;-68
2023/11/30 01:04:57;;;;;;;16.95;7.47;;;2.30;88.40;;;;;;9173671;19;20019;-70
2023/11/30 01:08:03;;;;;;;15.73;7.90;;;2.20;88.30;;;;;;9174182;19;20025;-68
2023/11/30 01:11:13;;;;;;;14.55;6.75;;;2.30;88.40;;;;;;9174316;19;20491;-70
2023/11/30 01:14:19;;;;;;;17.33;8.48;;;2.30;88.50;;;;;;9173998;19;20014;-70
2023/11/30 01:17:27;;;;;;;17.45;8.48;;;2.30;88.40;;;;;;9172050;19;20025;-69
2023/11/30 01:20:32;;;;;;;17.92;8.27;;;2.30;88.40;;;;;;9173325;19;20018;-71
2023/11/30 01:23:40;;;;;;;20.52;8.40;;;2.30;88.40;;;;;;9171780;19;20349;-69
2023/11/30 01:26:48;;;;;;;16.92;8.32;;;2.30;88.40;;;;;;9173348;19;20048;-69
2023/11/30 01:29:55;;;;;;;15.63;8.02;;;2.30;88.40;;;;;;9172671;19;20011;-69
2023/11/30 01:33:01;;;;;;;23.40;8.38;;;2.30;88.40;;;;;;9169465;19;20089;-70
2023/11/30 01:36:09;;;;;;;14.20;7.97;;;2.30;88.40;;;;;;9171098;19;20019;-70
2023/11/30 01:39:15;;;;;;;18.77;8.55;;;2.30;88.40;;;;;;9169115;19;20670;-70
2023/11/30 01:42:26;;;;;;;19.25;9.15;;;2.30;88.40;;;;;;9172918;19;20010;-70
2023/11/30 01:45:31;;;;;;;16.52;8.18;;;2.30;88.40;;;;;;9171753;19;20083;-69
2023/11/30 01:48:39;;;;;;;20.90;9.60;;;2.30;88.50;;;;;;9172635;19;20018;-69
2023/11/30 01:52:05;;;;;;;20.70;8.68;;;2.30;88.40;;;;;;9172159;19;20036;-75
2023/11/30 01:55:14;;;;;;;19.25;7.75;;;2.30;88.40;;;;;;9169806;19;20014;-75
2023/11/30 01:58:22;;;;;;;16.42;8.57;;;2.30;88.40;;;;;;9167148;19;20018;-75
2023/11/30 02:01:30;;;;;;;17.55;8.77;;;2.30;88.40;;;;;;9169875;19;20014;-74
2023/11/30 02:04:36;;;;;;;19.05;9.20;;;2.30;88.50;;;;;;9169717;19;20411;-73
2023/11/30 02:07:44;;;;;;;20.38;9.52;;;2.30;88.50;;;;;;9172704;19;20010;-73
2023/11/30 02:10:49;;;;;;;26.85;9.43;;;2.30;88.50;;;;;;9169638;19;20119;-74
2023/11/30 02:13:59;;;;;;;20.50;8.98;;;2.40;88.50;;;;;;9171467;19;20027;-75
2023/11/30 02:17:05;;;;;;;17.95;9.30;;;2.40;88.50;;;;;;9171019;19;20018;-74
2023/11/30 02:20:13;;;;;;;22.00;9.88;;;2.30;88.40;;;;;;9168280;19;20026;-74
2023/11/30 02:23:22;;;;;;;26.70;10.43;;;2.40;88.50;;;;;;9170514;19;20055;-75
2023/11/30 02:26:29;;;;;;;18.55;9.10;;;2.40;88.50;;;;;;9172042;19;20015;-74
2023/11/30 02:29:34;;;;;;;17.70;8.85;;;2.40;88.50;;;;;;9170913;19;20476;-74
2023/11/30 02:32:42;;;;;;;15.90;8.70;;;2.40;88.40;;;;;;9170937;19;20017;-74
2023/11/30 02:35:47;;;;;;;19.25;9.43;;;2.40;88.40;;;;;;9179713;19;20014;-74
2023/11/30 02:38:57;;;;;;;20.15;8.63;;;2.40;88.50;;;;;;9179096;19;20852;-74
2023/11/30 02:42:03;;;;;;;27.00;10.93;;;2.40;88.50;;;;;;9180298;19;20796;-74
2023/11/30 02:45:11;;;;;;;29.75;11.23;;;2.30;88.40;;;;;;9178940;19;20018;-75
2023/11/30 02:48:17;;;;;;;20.92;10.77;;;2.40;88.50;;;;;;9179745;19;20016;-75
2023/11/30 02:51:24;;;;;;;23.38;10.65;;;2.40;88.50;;;;;;9177925;19;20344;-73
2023/11/30 02:54:32;;;;;;;30.58;10.60;;;2.30;88.40;;;;;;9178459;19;20491;-74
2023/11/30 02:57:40;;;;;;;26.65;10.60;;;2.30;88.40;;;;;;9171402;19;20025;-74
2023/11/30 03:00:46;;;;;;;27.48;11.02;;;2.30;88.40;;;;;;9176359;19;20485;-73
2023/11/30 03:03:53;;;;;;;29.65;10.57;;;2.30;88.40;;;;;;9178467;19;20017;-70
2023/11/30 03:06:59;;;;;;;22.60;11.30;;;2.30;88.40;;;;;;9178592;19;20456;-70
2023/11/30 03:10:10;;;;;;;23.05;10.40;;;2.30;88.50;;;;;;9177174;19;20025;-69
2023/11/30 03:13:15;;;;;;;24.20;10.60;;;2.40;88.60;;;;;;9177410;19;20098;-73
2023/11/30 03:16:27;;;;;;;23.65;11.13;;;2.30;88.60;;;;;;9177101;19;20015;-68
2023/11/30 03:19:33;;;;;;;23.83;10.85;;;2.40;88.60;;;;;;9177054;19;20018;-70
2023/11/30 03:22:40;;;;;;;26.38;11.52;;;2.40;88.60;;;;;;9178057;19;20023;-69
2023/11/30 03:25:48;;;;;;;24.70;11.23;;;2.40;88.60;;;;;;9178038;19;20014;-70
2023/11/30 03:28:55;;;;;;;27.05;12.00;;;2.40;88.60;;;;;;9172745;19;20007;-70
2023/11/30 03:32:02;;;;;;;29.83;11.15;;;2.40;88.60;;;;;;9175702;19;20019;-69
2023/11/30 03:35:10;;;;;;;29.13;12.00;;;2.40;88.60;;;;;;9177773;19;20049;-70
2023/11/30 03:38:16;;;;;;;26.77;12.80;;;2.40;88.60;;;;;;9177994;19;20056;-69
2023/11/30 03:41:26;;;;;;;23.17;11.48;;;2.40;88.60;;;;;;9174604;19;20006;-68
2023/11/30 03:44:31;;;;;;;28.83;12.48;;;2.40;88.50;;;;;;9172902;19;20479;-69
2023/11/30 03:47:39;;;;;;;26.35;11.75;;;2.40;88.50;;;;;;9177473;19;20022;-72
2023/11/30 03:50:45;;;;;;;27.58;12.63;;;2.40;88.50;;;;;;9176935;19;20017;-68
2023/11/30 03:53:52;;;;;;;25.95;12.38;;;2.40;88.50;;;;;;9177545;19;20015;-71
2023/11/30 03:57:00;;;;;;;30.33;12.23;;;2.40;88.60;;;;;;9172771;19;20048;-69
2023/11/30 04:00:12;;;;;;;24.67;12.18;;;2.40;88.60;;;;;;9175326;19;20014;-69
2023/11/30 04:03:18;;;;;;;28.02;13.25;;;2.40;88.60;;;;;;9175380;19;20503;-68
2023/11/30 04:06:26;;;;;;;26.42;13.23;;;2.40;88.60;;;;;;9174337;19;20021;-69
2023/11/30 04:09:31;;;;;;;28.08;13.05;;;2.40;88.60;;;;;;9176718;19;20017;-69
2023/11/30 04:12:41;;;;;;;27.08;12.93;;;2.40;88.70;;;;;;9176607;19;20025;-66
2023/11/30 04:15:47;;;;;;;26.48;12.50;;;2.40;88.70;;;;;;9174275;19;20031;-67
2023/11/30 04:18:54;;;;;;;28.83;13.10;;;2.40;88.60;;;;;;9176647;19;20026;-68
2023/11/30 04:22:00;;;;;;;29.67;14.18;;;2.40;88.60;;;;;;9175647;19;20014;-68
2023/11/30 04:25:08;;;;;;;26.20;12.25;;;2.40;88.60;;;;;;9173121;19;20018;-70
2023/11/30 04:28:16;;;;;;;26.35;13.77;;;2.50;88.70;;;;;;9176558;19;20011;-67
2023/11/30 04:31:24;;;;;;;30.65;13.77;;;2.50;88.70;;;;;;9172765;19;20029;-68
2023/11/30 04:34:29;;;;;;;31.85;13.10;;;2.50;88.70;;;;;;9176170;19;20015;-66
2023/11/30 04:37:37;;;;;;;30.98;13.93;;;2.50;88.70;;;;;;9174388;19;20025;-67
2023/11/30 04:40:42;;;;;;;21.60;11.68;;;2.50;88.70;;;;;;9173236;19;20468;-68
2023/11/30 04:43:52;;;;;;;37.08;13.05;;;2.40;88.60;;;;;;9175205;19;20367;-67
2023/11/30 04:46:58;;;;;;;26.80;12.25;;;2.50;88.60;;;;;;9175016;19;20015;-70
2023/11/30 04:50:06;;;;;;;32.63;13.98;;;2.50;88.60;;;;;;9176273;19;20026;-67
2023/11/30 04:53:12;;;;;;;31.48;13.73;;;2.40;88.60;;;;;;9174800;19;20023;-67
2023/11/30 04:56:19;;;;;;;29.88;13.38;;;2.50;88.70;;;;;;9167622;19;20018;-68
2023/11/30 04:59:27;;;;;;;29.30;12.95;;;2.50;88.70;;;;;;9174347;19;20018;-67
2023/11/30 05:02:35;;;;;;;27.48;13.10;;;2.50;89.30;;;;;;9172547;19;20023;-67
2023/11/30 05:05:41;;;;;;;28.27;13.93;;;2.50;88.70;;;;;;9173365;19;20360;-67
2023/11/30 05:08:48;;;;;;;29.27;13.30;;;2.50;88.70;;;;;;9173720;19;20018;-68
2023/11/30 05:11:54;;;;;;;27.50;13.65;;;2.40;88.60;;;;;;9174338;19;20500;-68
2023/11/30 05:15:04;;;;;;;27.67;13.93;;;2.50;88.70;;;;;;9173853;19;20531;-68
2023/11/30 05:18:09;;;;;;;27.95;12.60;;;2.50;88.70;;;;;;9173594;19;20131;-69
2023/11/30 05:21:17;;;;;;;27.95;13.13;;;2.50;88.80;;;;;;9171578;19;20014;-69
2023/11/30 05:24:22;;;;;;;29.55;13.57;;;2.40;88.60;;;;;;9171157;19;20010;-69
2023/11/30 05:27:30;;;;;;;28.85;14.02;;;2.40;88.60;;;;;;9172526;19;20668;-67
2023/11/30 05:30:38;;;;;;;30.48;13.20;;;2.40;88.60;;;;;;9173225;19;20025;-69
2023/11/30 05:33:45;;;;;;;30.50;13.38;;;2.40;88.70;;;;;;9173132;19;20014;-69
2023/11/30 05:36:51;;;;;;;30.10;13.65;;;2.40;88.70;;;;;;9172205;19;20522;-67
2023/11/30 05:39:58;;;;;;;31.35;13.40;;;2.40;88.70;;;;;;9172121;19;20030;-66
2023/11/30 05:43:05;;;;;;;28.08;13.45;;;2.40;88.70;;;;;;9171251;19;20018;-68
2023/11/30 05:46:15;;;;;;;26.63;12.77;;;2.40;88.70;;;;;;9172294;19;20018;-68
2023/11/30 05:49:20;;;;;;;29.05;13.48;;;2.40;88.80;;;;;;9173380;19;20397;-69
2023/11/30 05:52:27;;;;;;;28.13;14.20;;;2.50;88.80;;;;;;9173391;19;20014;-68
2023/11/30 05:55:33;;;;;;;34.22;14.32;;;2.50;88.80;;;;;;9172158;19;20014;-67
2023/11/30 05:58:40;;;;;;;29.58;12.90;;;2.50;88.80;;;;;;9167672;19;20041;-69
2023/11/30 06:01:48;;;;;;;31.35;14.80;;;2.50;88.90;;;;;;9170150;19;20014;-67
2023/11/30 06:04:58;;;;;;;26.42;13.02;;;2.50;88.90;;;;;;9173042;19;20010;-68
2023/11/30 06:08:03;;;;;;;30.88;13.75;;;2.50;88.90;;;;;;9177441;19;20026;-66
2023/11/30 06:11:11;;;;;;;28.85;14.13;;;2.50;88.90;;;;;;9181250;19;20018;-69
2023/11/30 06:14:16;;;;;;;26.17;12.43;;;2.50;88.90;;;;;;9181754;19;20472;-69
2023/11/30 06:17:26;;;;;;;29.15;12.82;;;2.50;88.90;;;;;;9176889;19;20026;-69
2023/11/30 06:20:32;;;;;;;26.25;12.38;;;2.50;88.80;;;;;;9180269;19;20010;-66
2023/11/30 06:23:39;;;;;;;26.13;12.68;;;2.50;88.80;;;;;;9180766;19;20029;-68
2023/11/30 06:26:45;;;;;;;27.70;13.85;;;2.50;88.80;;;;;;9178891;19;20018;-68
2023/11/30 06:29:52;;;;;;;28.23;12.82;;;2.50;88.80;;;;;;9180127;19;20022;-67
2023/11/30 06:33:00;;;;;;;27.35;13.80;;;2.50;88.90;;;;;;9178232;19;20011;-73
2023/11/30 06:36:09;;;;;;;27.30;13.70;;;2.50;89.00;;;;;;9180072;19;20014;-72
2023/11/30 06:39:14;;;;;;;28.73;14.23;;;2.50;88.90;;;;;;9180470;19;20432;-73
2023/11/30 06:42:22;;;;;;;26.70;12.60;;;2.50;88.90;;;;;;9177702;19;20022;-71
2023/11/30 06:45:27;;;;;;;29.63;13.82;;;2.50;88.90;;;;;;9179707;19;20026;-72
2023/11/30 06:48:38;;;;;;;26.70;13.00;;;2.50;88.90;;;;;;9179015;19;20014;-71
2023/11/30 06:51:43;;;;;;;25.90;13.63;;;2.50;89.40;;;;;;9178810;19;20028;-71
2023/11/30 06:54:50;;;;;;;31.55;14.43;;;2.50;88.90;;;;;;9179060;19;20019;-72
2023/11/30 06:57:56;;;;;;;27.83;13.27;;;2.50;88.90;;;;;;9174947;19;20021;-71
2023/11/30 07:01:03;;;;;;;28.08;14.10;;;2.50;88.80;;;;;;9177820;19;20379;-72
2023/11/30 07:04:11;;;;;;;25.75;13.55;;;2.50;88.90;;;;;;9175550;19;20022;-73
2023/11/30 07:07:19;;;;;;;33.03;13.38;;;2.50;88.90;;;;;;9178016;19;20023;-72
2023/11/30 07:10:38;;;;;;;27.58;14.40;;;2.50;88.80;;;;;;9177660;19;20018;-73
2023/11/30 07:13:45;;;;;;;32.45;14.77;;;2.50;88.90;;;;;;9174868;19;20025;-73
2023/11/30 07:16:51;;;;;;;33.17;14.88;;;2.50;88.90;;;;;;9177076;19;20006;-69
2023/11/30 07:20:01;;;;;;;28.33;14.07;;;2.50;88.90;;;;;;9178319;19;20022;-69
2023/11/30 07:23:06;;;;;;;30.77;14.50;;;2.50;88.90;;;;;;9176617;19;20022;-69
2023/11/30 07:26:14;;;;;;;31.65;14.70;;;2.50;88.90;;;;;;9172462;19;20469;-69
2023/11/30 07:29:19;;;;;;;31.02;15.05;;;2.50;88.90;;;;;;9173134;19;20033;-70
2023/11/30 07:32:31;;;;;;;34.95;15.25;;;2.50;89.00;;;;;;9175670;19;20015;-68
2023/11/30 07:35:42;;;;;;;30.98;14.75;;;2.50;88.90;;;;;;9173078;19;20019;-68
2023/11/30 07:38:50;;;;;;;29.30;15.00;;;2.50;88.90;;;;;;9172116;19;20018;-69
2023/11/30 07:41:55;;;;;;;31.63;15.15;;;2.50;88.90;;;;;;9164896;19;20097;-68
2023/11/30 07:45:03;;;;;;;29.85;15.80;;;2.50;88.90;;;;;;9171800;19;20502;-70
2023/11/30 07:48:10;;;;;;;31.10;15.68;;;2.50;88.90;;;;;;9169171;19;20022;-68
2023/11/30 07:51:22;;;;;;;37.13;15.75;;;2.50;88.90;;;;;;9174116;19;20029;-71
2023/11/30 07:54:27;;;;;;;35.65;16.10;;;2.50;88.90;;;;;;9173482;19;20021;-73
2023/11/30 07:57:35;;;;;;;30.58;15.38;;;2.50;88.90;;;;;;9169309;19;20010;-70
2023/11/30 08:00:40;;;;;;;33.42;15.20;;;2.50;88.90;;;;;;9173993;19;20022;-72
2023/11/30 08:03:49;;;;;;;36.03;16.35;;;2.50;88.90;;;;;;9171575;19;20025;-72
2023/11/30 08:06:57;;;;;;;40.88;17.52;;;2.50;88.90;;;;;;9172017;19;20520;-71
2023/11/30 08:10:06;;;;;;;34.35;16.55;;;2.50;89.00;;;;;;9169295;19;20011;-71
2023/11/30 08:13:13;;;;;;;28.65;15.50;;;2.50;88.90;;;;;;9174339;19;20010;-68
2023/11/30 08:16:21;;;;;;;39.75;17.38;;;2.50;88.90;;;;;;9173588;19;20027;-70
2023/11/30 08:19:26;;;;;;;40.83;17.17;;;2.50;88.90;;;;;;9174096;19;20014;-71
2023/11/30 08:22:36;;;;;;;33.67;16.27;;;2.50;88.90;;;;;;9171184;19;20011;-69
2023/11/30 08:25:42;;;;;;;38.15;16.67;;;2.50;88.90;;;;;;9174927;19;20021;-69
2023/11/30 08:28:50;;;;;;;36.65;17.10;;;2.50;88.90;;;;;;9175072;19;20022;-69
2023/11/30 08:31:55;;;;;;;35.45;16.63;;;2.50;89.00;;;;;;9170734;19;20018;-69
2023/11/30 08:35:03;;;;;;;39.67;17.27;;;2.50;89.00;;;;;;9173925;19;20030;-69
2023/11/30 08:38:11;;;;;;;35.42;16.58;;;2.50;89.00;;;;;;9174067;19;20435;-69
2023/11/30 08:41:20;;;;;;;34.92;16.52;;;2.50;89.10;;;;;;9170249;19;20018;-68
2023/11/30 08:44:25;;;;;;;35.03;15.63;;;2.50;89.10;;;;;;9173243;19;20044;-69
2023/11/30 08:47:33;;;;;;;33.00;15.82;;;2.60;89.10;;;;;;9167625;19;20015;-68
2023/11/30 08:50:38;;;;;;;38.20;17.38;;;2.60;89.10;;;;;;9171012;19;20015;-68
2023/11/30 08:53:48;;;;;;;36.53;17.92;;;2.60;89.10;;;;;;9173747;19;20023;-66
2023/11/30 08:56:54;;;;;;;40.45;17.30;;;2.60;89.10;;;;;;9168296;19;20971;-67
2023/11/30 09:00:05;;;;;;;39.28;18.10;;;2.60;89.10;;;;;;9172464;19;20011;-63
2023/11/30 09:03:11;;;;;;;35.80;16.77;;;2.60;89.10;;;;;;9173511;19;20018;-67
2023/11/30 09:06:20;;;;;;;37.13;17.58;;;2.60;89.10;;;;;;9168495;19;20565;-64
2023/11/30 09:09:28;;;;;;;37.67;17.58;;;2.60;89.20;;;;;;9170307;19;20116;-65
2023/11/30 09:12:36;;;;;;;36.75;17.95;;;2.60;89.10;;;;;;9165611;19;20007;-67
2023/11/30 09:15:41;;;;;;;36.20;17.67;;;2.70;89.20;;;;;;9171341;19;20033;-65
2023/11/30 09:18:49;;;;;;;80.97;19.25;;;2.70;89.20;;;;;;9171163;19;20023;-63
2023/11/30 09:21:54;;;;;;;37.78;16.88;;;2.70;89.20;;;;;;9170857;19;20025;-63
2023/11/30 09:25:05;;;;;;;38.58;18.02;;;2.60;89.70;;;;;;9171498;19;20027;-66
2023/11/30 09:28:11;;;;;;;36.40;17.13;;;2.70;89.20;;;;;;9171685;19;20019;-64
2023/11/30 09:31:19;;;;;;;38.88;16.75;;;2.60;89.10;;;;;;9171145;19;20018;-64
2023/11/30 09:34:24;;;;;;;37.15;17.48;;;2.70;89.10;;;;;;9170605;19;20007;-63
2023/11/30 09:37:32;;;;;;;40.22;17.58;;;2.70;89.10;;;;;;9172088;19;20353;-64
2023/11/30 09:40:40;;;;;;;39.58;17.38;;;2.60;89.10;;;;;;9171182;19;20025;-66
2023/11/30 09:43:48;;;;;;;36.88;17.25;;;2.60;89.10;;;;;;9168596;19;20022;-66
2023/11/30 09:46:53;;;;;;;41.95;19.33;;;2.70;89.20;;;;;;9170679;19;20044;-64
2023/11/30 09:50:01;;;;;;;40.28;18.20;;;2.60;89.10;;;;;;9170448;19;20011;-67
2023/11/30 09:53:06;;;;;;;44.47;19.25;;;2.60;89.10;;;;;;9172154;19;20107;-64
2023/11/30 09:56:16;;;;;;;43.33;19.13;;;2.70;89.20;;;;;;9168908;19;20029;-63
2023/11/30 09:59:23;;;;;;;41.33;17.70;;;2.70;89.20;;;;;;9173472;19;21387;-67
2023/11/30 10:02:31;;;;;;;45.90;20.58;;;2.70;89.10;;;;;;9170081;19;20018;-68
2023/11/30 10:05:36;;;;;;;40.85;19.42;;;2.70;89.20;;;;;;9171460;19;20023;-69
2023/11/30 10:08:44;;;;;;;38.35;17.17;;;2.70;89.20;;;;;;9170837;19;20025;-68
2023/11/30 10:11:52;;;;;;;49.17;20.90;;;2.70;89.20;;;;;;9170870;19;20014;-67
2023/11/30 10:15:03;;;;;;;47.10;19.48;;;2.70;89.20;;;;;;9170820;19;20026;-68
2023/11/30 10:18:10;;;;;;;48.45;20.38;;;2.80;89.30;;;;;;9170434;19;20573;-71
2023/11/30 10:21:17;;;;;;;55.47;22.05;;;2.80;89.30;;;;;;9168611;19;20017;-69
2023/11/30 10:24:23;;;;;;;61.28;22.20;;;2.80;89.20;;;;;;9169135;19;20014;-69
2023/11/30 10:27:37;;;;;;;60.10;21.70;;;2.80;89.30;;;;;;9169052;19;20024;-69
2023/11/30 10:30:44;;;;;;;56.00;22.33;;;2.80;89.20;;;;;;9169890;19;20015;-71
2023/11/30 10:33:57;;;;;;;63.70;24.02;;;2.80;89.20;;;;;;9169563;19;20376;-69
2023/11/30 10:37:05;;;;;;;59.30;22.88;;;2.80;89.20;;;;;;9171766;19;20014;-70
2023/11/30 10:40:15;;;;;;;58.78;23.20;;;2.80;89.20;;;;;;9171280;19;20018;-71
2023/11/30 10:43:24;;;;;;;60.00;23.42;;;2.80;89.10;;;;;;9171600;19;20018;-68
2023/11/30 10:46:34;;;;;;;64.00;24.30;;;2.80;89.10;;;;;;9169805;19;20026;-71
2023/11/30 10:49:41;;;;;;;60.83;23.95;;;2.80;89.20;;;;;;9169625;19;20018;-70
2023/11/30 10:52:50;;;;;;;65.45;24.55;;;2.80;89.10;;;;;;9170681;19;20022;-69
2023/11/30 10:55:57;;;;;;;62.60;24.58;;;2.80;89.20;;;;;;9179416;19;20022;-68
2023/11/30 10:59:14;;;;;;;66.28;24.38;;;2.80;89.20;;;;;;9171475;19;20015;-68
2023/11/30 11:02:19;;;;;;;65.47;24.63;;;2.80;89.30;;;;;;9179500;19;20019;-69
2023/11/30 11:05:30;;;;;;;67.40;26.20;;;2.90;89.20;;;;;;9175081;19;20022;-70
2023/11/30 11:08:36;;;;;;;68.40;25.55;;;2.90;89.20;;;;;;9176652;19;20488;-71
2023/11/30 11:11:45;;;;;;;68.82;25.33;;;2.90;89.20;;;;;;9175562;19;20029;-71
2023/11/30 11:15:08;;;;;;;67.65;25.85;;;2.90;89.30;;;;;;9174846;19;20022;-72
2023/11/30 11:18:22;;;;;;;64.10;26.33;;;2.90;89.20;;;;;;9176717;19;20021;-70
2023/11/30 11:21:29;;;;;;;71.80;26.33;;;2.90;89.30;;;;;;9177254;19;20018;-70
2023/11/30 11:24:42;;;;;;;75.05;27.52;;;2.90;89.30;;;;;;9176922;19;20029;-69
2023/11/30 11:27:48;;;;;;;77.60;28.63;;;2.90;89.30;;;;;;9176333;19;20063;-70
2023/11/30 11:30:58;;;;;;;75.30;28.77;;;2.90;89.30;;;;;;9174494;19;20052;-71
2023/11/30 11:34:04;;;;;;;70.38;26.88;;;2.90;89.30;;;;;;9176352;19;20014;-70
2023/11/30 11:37:11;;;;;;;73.90;27.38;;;2.90;89.30;;;;;;9175312;19;20041;-71
2023/11/30 11:40:20;;;;;;;73.60;28.33;;;2.90;89.30;;;;;;9173390;19;20015;-71
2023/11/30 11:43:27;;;;;;;73.28;27.17;;;2.90;89.30;;;;;;9174140;19;20023;-71
2023/11/30 11:46:35;;;;;;;78.55;30.88;;;3.00;89.30;;;;;;9173391;19;20497;-70
2023/11/30 11:49:43;;;;;;;89.38;30.83;;;3.00;89.30;;;;;;9177286;19;20507;-71
2023/11/30 11:52:50;;;;;;;84.32;32.47;;;3.00;89.30;;;;;;9173822;19;20024;-71
2023/11/30 11:56:06;;;;;;;88.80;30.20;;;3.00;89.30;;;;;;9175357;19;20009;-70
2023/11/30 11:59:12;;;;;;;87.78;31.42;;;3.00;89.30;;;;;;9176806;19;20018;-70
2023/11/30 12:02:23;;;;;;;91.82;32.80;;;3.00;89.30;;;;;;9176353;19;20014;-71
2023/11/30 12:05:28;;;;;;;92.32;31.45;;;3.00;89.30;;;;;;9173211;19;20014;-71
2023/11/30 12:08:37;;;;;;;92.30;32.35;;;3.00;89.30;;;;;;9174780;19;20019;-71
2023/11/30 12:11:42;;;;;;;94.00;34.92;;;3.00;89.40;;;;;;9177063;19;20381;-73
2023/11/30 12:14:50;;;;;;;101.22;34.65;;;3.00;89.30;;;;;;9171733;19;20015;-71
2023/11/30 12:17:58;;;;;;;106.53;36.40;;;3.00;89.30;;;;;;9173606;19;20022;-71
2023/11/30 12:21:07;;;;;;;104.68;37.00;;;3.10;89.40;;;;;;9173797;19;20373;-71
2023/11/30 12:24:12;;;;;;;111.38;37.50;;;3.10;89.40;;;;;;9172304;19;20063;-66
2023/11/30 12:27:19;;;;;;;108.47;36.75;;;3.10;89.40;;;;;;9171498;19;20021;-66
2023/11/30 12:30:25;;;;;;;100.25;37.63;;;3.10;89.30;;;;;;9172934;19;20021;-67
2023/11/30 12:33:36;;;;;;;108.97;36.53;;;3.10;89.30;;;;;;9174828;19;20018;-63
2023/11/30 12:36:44;;;;;;;112.28;35.63;;;3.00;89.20;;;;;;9172186;19;20018;-64
2023/11/30 12:39:52;;;;;;;104.18;36.33;;;3.00;89.20;;;;;;9174786;19;20010;-65
2023/11/30 12:42:57;;;;;;;104.70;37.10;;;3.00;89.20;;;;;;9175803;19;20472;-65
2023/11/30 12:46:05;;;;;;;94.47;34.78;;;3.00;89.20;;;;;;9172893;19;20013;-68
2023/11/30 12:49:13;;;;;;;102.10;35.83;;;3.00;89.20;;;;;;9174929;19;20018;-65
2023/11/30 12:52:21;;;;;;;101.18;36.47;;;3.00;89.20;;;;;;9171195;19;20014;-64
2023/11/30 12:55:27;;;;;;;115.97;37.85;;;3.10;89.30;;;;;;9169824;19;20015;-66
2023/11/30 12:58:36;;;;;;;121.97;37.50;;;3.00;89.80;;;;;;9166217;19;20015;-68
2023/11/30 13:01:41;;;;;;;108.40;37.20;;;3.00;89.20;;;;;;9168006;19;20064;-65
2023/11/30 13:04:51;;;;;;;120.13;38.47;;;3.00;89.20;;;;;;9169805;19;20022;-68
2023/11/30 13:07:58;;;;;;;117.68;37.58;;;3.10;89.30;;;;;;9172700;19;20110;-66
2023/11/30 13:11:05;;;;;;;112.40;38.13;;;3.00;89.20;;;;;;9174050;19;20014;-67
2023/11/30 13:14:11;;;;;;;115.18;36.33;;;3.10;89.20;;;;;;9174553;19;20460;-68
2023/11/30 13:17:19;;;;;;;105.57;37.70;;;3.00;89.10;;;;;;9172512;19;20006;-66
2023/11/30 13:20:27;;;;;;;108.05;36.47;;;3.10;89.20;;;;;;9173149;19;20022;-66
2023/11/30 13:23:35;;;;;;;107.82;36.55;;;3.00;89.20;;;;;;9172510;19;20862;-66
2023/11/30 13:26:40;;;;;;;106.00;37.30;;;3.00;89.20;;;;;;9172052;19;20401;-66
2023/11/30 13:29:48;;;;;;;111.03;37.80;;;3.00;89.10;;;;;;9173786;19;20025;-66
2023/11/30 13:32:55;;;;;;;113.85;36.53;;;3.00;89.10;;;;;;9172779;19;20026;-71
2023/11/30 13:36:06;;;;;;;109.97;36.35;;;3.00;89.10;;;;;;9172764;19;20010;-72
2023/11/30 13:39:12;;;;;;;111.07;37.00;;;3.00;89.10;;;;;;9173526;19;20013;-73
2023/11/30 13:42:19;;;;;;;100.10;35.53;;;3.00;89.20;;;;;;9170807;19;20019;-70
2023/11/30 13:45:25;;;;;;;94.28;34.28;;;3.00;89.20;;;;;;9171345;19;20078;-71
2023/11/30 13:48:32;;;;;;;100.43;33.70;;;3.00;89.10;;;;;;9171491;19;20018;-74
2023/11/30 13:51:41;;;;;;;99.10;32.92;;;3.00;89.10;;;;;;9171932;19;20090;-72
2023/11/30 13:54:48;;;;;;;91.57;35.20;;;3.00;89.10;;;;;;9173064;19;20026;-72
2023/11/30 13:57:54;;;;;;;108.57;37.25;;;3.00;89.00;;;;;;9169945;19;20051;-72
2023/11/30 14:01:02;;;;;;;104.40;35.92;;;3.00;89.00;;;;;;9172125;19;20022;-71
2023/11/30 14:04:08;;;;;;;106.63;36.25;;;3.00;88.90;;;;;;9172207;19;20026;-71
2023/11/30 14:07:20;;;;;;;93.45;33.15;;;2.90;88.90;;;;;;9170065;19;20767;-73
2023/11/30 14:10:27;;;;;;;96.10;32.65;;;2.90;88.90;;;;;;9171867;19;20032;-72
2023/11/30 14:13:35;;;;;;;85.30;32.60;;;2.90;89.00;;;;;;9170417;19;20025;-72
2023/11/30 14:16:40;;;;;;;94.07;31.15;;;2.90;89.00;;;;;;9164212;19;20014;-73
2023/11/30 14:19:48;;;;;;;93.25;32.53;;;2.90;89.10;;;;;;9172565;19;20026;-72
2023/11/30 14:22:56;;;;;;;93.20;30.10;;;3.00;89.10;;;;;;9171774;19;20014;-71
2023/11/30 14:26:03;;;;;;;93.32;29.67;;;2.90;89.10;;;;;;9168413;19;20019;-72
2023/11/30 14:29:09;;;;;;;79.90;29.00;;;2.90;89.10;;;;;;9174689;19;21615;-71
2023/11/30 14:32:18;;;;;;;78.80;28.23;;;2.90;89.10;;;;;;9178464;19;20018;-71
2023/11/30 14:35:24;;;;;;;79.07;28.27;;;3.00;89.20;;;;;;9180901;19;20549;-73
2023/11/30 14:38:35;;;;;;;84.95;29.27;;;3.00;89.20;;;;;;9179032;19;20022;-73
2023/11/30 14:41:40;;;;;;;93.93;30.55;;;3.00;89.20;;;;;;9179224;19;20026;-71
2023/11/30 14:44:48;;;;;;;80.25;28.70;;;3.00;89.20;;;;;;9178704;19;20025;-71
2023/11/30 14:47:53;;;;;;;82.13;29.25;;;3.00;89.20;;;;;;9179791;19;20498;-71
2023/11/30 14:51:01;;;;;;;83.18;29.52;;;3.00;89.20;;;;;;9179266;19;20014;-72
2023/11/30 14:54:10;;;;;;;89.63;31.45;;;3.00;89.20;;;;;;9180019;19;20022;-72
2023/11/30 14:57:17;;;;;;;108.93;33.58;;;3.00;89.20;;;;;;9172570;19;20670;-71
2023/11/30 15:00:23;;;;;;;111.57;35.35;;;3.00;89.20;;;;;;9176338;19;20011;-70
2023/11/30 15:03:31;;;;;;;102.50;34.50;;;3.00;89.20;;;;;;9176807;19;20648;-72
2023/11/30 15:06:39;;;;;;;97.15;31.35;;;3.00;89.20;;;;;;9175005;19;20025;-73
2023/11/30 15:09:49;;;;;;;93.88;31.52;;;3.00;89.10;;;;;;9175536;19;20006;-72
2023/11/30 15:12:55;;;;;;;100.32;32.30;;;3.00;89.10;;;;;;9178247;19;20034;-72
2023/11/30 15:16:03;;;;;;;106.28;34.03;;;2.90;89.00;;;;;;9176033;19;20011;-72
2023/11/30 15:19:10;;;;;;;114.53;35.53;;;2.90;89.10;;;;;;9175618;19;20021;-71
2023/11/30 15:22:17;;;;;;;104.47;34.72;;;2.90;89.00;;;;;;9176580;19;20018;-73
2023/11/30 15:25:25;;;;;;;105.35;36.33;;;2.90;89.00;;;;;;9174728;19;20018;-71
2023/11/30 15:28:33;;;;;;;114.90;37.22;;;2.90;89.00;;;;;;9176837;19;20018;-69
2023/11/30 15:31:38;;;;;;;137.70;39.88;;;2.90;89.10;;;;;;9171881;19;20015;-70
2023/11/30 15:34:47;;;;;;;121.68;36.42;;;2.90;89.10;;;;;;9172655;19;20471;-69
2023/11/30 15:37:55;;;;;;;114.60;36.08;;;2.90;89.10;;;;;;9174198;19;20064;-70
2023/11/30 15:41:05;;;;;;;120.00;36.20;;;2.90;89.10;;;;;;9173503;19;20026;-69
2023/11/30 15:44:11;;;;;;;120.97;38.00;;;2.80;89.10;;;;;;9173683;19;20025;-69
2023/11/30 15:47:19;;;;;;;113.03;36.70;;;2.90;89.10;;;;;;9173349;19;20028;-72
2023/11/30 15:50:24;;;;;;;138.20;41.25;;;2.90;89.20;;;;;;9172957;19;20018;-71
2023/11/30 15:53:36;;;;;;;145.10;40.40;;;2.90;89.20;;;;;;9172905;19;20022;-67
2023/11/30 15:56:44;;;;;;;133.65;38.60;;;2.90;89.20;;;;;;9170601;19;20441;-69
2023/11/30 15:59:52;;;;;;;132.68;38.78;;;2.90;89.10;;;;;;9170038;19;20043;-67
2023/11/30 16:02:58;;;;;;;132.57;38.70;;;2.90;89.10;;;;;;9172514;19;20018;-68